Time;durP1;ratioP1;P1;durP2;ratioP2;P2;SDS_P1;SDS_P2;PMS_P1;PMS_P2;Temp;Humidity;BMP_temperature;BMP_pressure;BME280_temperature;BME280_humidity;BME280_pressure;Samples;Min_cycle;Max_cycle;Signal;HPM_P1;HPM_P2
2023/10/13 00:01:59;;;;;;;4.20;1.67;;;;;;;14.91;48.55;99467.72;5095758;28;20185;-86
2023/10/13 00:04:32;;;;;;;2.80;1.50;;;;;;;14.94;48.34;99471.97;5077829;28;20191;-87
2023/10/13 00:06:58;;;;;;;4.07;1.40;;;;;;;14.87;48.95;99471.53;5095391;28;20192;-87
2023/10/13 00:09:29;;;;;;;2.50;1.20;;;;;;;14.84;48.85;99470.88;5095585;28;20513;-87
2023/10/13 00:11:56;;;;;;;3.47;1.40;;;;;;;14.78;48.85;99464.19;5077525;28;20176;-86
2023/10/13 00:14:22;;;;;;;2.00;1.13;;;;;;;14.82;48.81;99468.34;5095443;28;20168;-87
2023/10/13 00:17:03;;;;;;;2.30;1.07;;;;;;;14.78;48.75;99459.78;5095377;28;20503;-87
2023/10/13 00:19:37;;;;;;;4.37;1.70;;;;;;;14.74;49.18;99453.00;5096237;28;20160;-87
2023/10/13 00:22:11;;;;;;;6.07;1.20;;;;;;;14.77;49.09;99451.97;5095128;28;20179;-86
2023/10/13 00:24:42;;;;;;;2.60;1.30;;;;;;;14.66;49.27;99449.16;5095229;28;20191;-87
2023/10/13 00:27:33;;;;;;;2.93;0.90;;;;;;;14.63;49.45;99452.84;5076878;28;20240;-86
2023/10/13 00:30:52;;;;;;;2.83;1.20;;;;;;;14.57;49.35;99452.41;5094836;28;20188;-86
2023/10/13 00:32:56;;;;;;;6.07;1.40;;;;;;;14.47;49.73;99448.63;5080582;28;20716;-87
2023/10/13 00:35:57;;;;;;;2.53;1.13;;;;;;;14.43;49.90;99450.63;5095132;28;20156;-86
2023/10/13 00:38:19;;;;;;;3.37;1.10;;;;;;;14.41;50.22;99447.22;5090330;28;20649;-86
2023/10/13 00:40:52;;;;;;;2.30;1.07;;;;;;;14.43;49.91;99448.00;5095264;28;20186;-86
2023/10/13 00:45:54;;;;;;;3.40;1.23;;;;;;;14.43;49.82;99444.50;5094687;28;20196;-86
2023/10/13 00:48:33;;;;;;;2.67;1.27;;;;;;;14.40;49.94;99447.34;5094632;28;20173;-86
2023/10/13 00:51:06;;;;;;;3.60;1.23;;;;;;;14.36;50.29;99448.50;5094699;28;20168;-87
2023/10/13 00:53:39;;;;;;;6.67;1.43;;;;;;;14.39;50.12;99445.63;5094805;28;20598;-86
2023/10/13 00:56:07;;;;;;;2.90;1.30;;;;;;;14.33;49.92;99446.91;5094733;28;20186;-87
2023/10/13 00:58:35;;;;;;;4.70;0.97;;;;;;;14.38;49.72;99451.88;5095178;28;20180;-87
2023/10/13 01:01:21;;;;;;;5.43;1.60;;;;;;;14.41;49.58;99446.41;5094525;28;20172;-86
2023/10/13 01:03:55;;;;;;;3.87;1.47;;;;;;;14.34;50.00;99443.28;5074318;28;20233;-87
2023/10/13 01:06:25;;;;;;;4.63;1.47;;;;;;;14.30;50.19;99438.28;5056549;28;20560;-86
2023/10/13 01:09:19;;;;;;;4.00;1.20;;;;;;;14.27;50.31;99441.13;5072385;28;20183;-86
2023/10/13 01:11:52;;;;;;;5.40;1.50;;;;;;;14.24;49.66;99443.94;5094349;28;20256;-86
2023/10/13 01:14:20;;;;;;;3.40;0.97;;;;;;;14.18;49.27;99444.34;5094278;28;20157;-86
2023/10/13 01:16:52;;;;;;;2.80;1.20;;;;;;;14.16;49.68;99445.28;5075736;28;20203;-87
2023/10/13 01:19:24;;;;;;;3.23;1.10;;;;;;;14.11;49.73;99443.84;5076265;28;20232;-86
2023/10/13 01:21:54;;;;;;;4.80;1.60;;;;;;;14.10;49.96;99434.25;5076218;28;20168;-87
2023/10/13 01:24:23;;;;;;;2.70;1.37;;;;;;;14.04;50.12;99427.59;5094163;28;20183;-87
2023/10/13 01:26:52;;;;;;;3.90;1.30;;;;;;;14.04;50.34;99429.38;5093807;28;20231;-86
2023/10/13 01:29:19;;;;;;;5.17;1.47;;;;;;;14.03;50.55;99430.31;5093792;28;20257;-86
2023/10/13 01:31:46;;;;;;;4.17;1.53;;;;;;;14.08;50.09;99434.34;5076105;28;20629;-87
2023/10/13 01:34:23;;;;;;;3.40;1.43;;;;;;;14.15;49.96;99434.78;5093922;28;20229;-86
2023/10/13 01:36:54;;;;;;;3.80;1.43;;;;;;;14.08;50.40;99429.06;5094220;28;20549;-87
2023/10/13 01:39:28;;;;;;;4.00;1.37;;;;;;;14.05;50.53;99434.53;5075812;28;20184;-86
2023/10/13 01:41:55;;;;;;;4.03;1.80;;;;;;;14.11;50.22;99443.84;5076827;28;20171;-87
2023/10/13 01:44:30;;;;;;;4.67;1.40;;;;;;;14.10;50.25;99440.38;5094649;28;20629;-86
2023/10/13 01:47:06;;;;;;;4.23;1.20;;;;;;;14.11;50.09;99436.81;5093549;28;20225;-86
2023/10/13 01:49:41;;;;;;;7.13;1.57;;;;;;;14.08;50.45;99441.41;5093978;28;20667;-86
2023/10/13 01:52:11;;;;;;;6.17;1.50;;;;;;;14.02;50.62;99428.59;5075723;28;20186;-86
2023/10/13 01:54:41;;;;;;;2.90;1.23;;;;;;;13.98;50.68;99427.97;5092677;28;20245;-86
2023/10/13 01:57:07;;;;;;;6.07;2.03;;;;;;;13.98;50.61;99432.38;5093266;28;20628;-86
2023/10/13 01:59:43;;;;;;;2.97;1.43;;;;;;;14.00;50.91;99435.75;5093391;28;20179;-86
2023/10/13 02:02:14;;;;;;;2.87;1.50;;;;;;;14.02;50.92;99434.72;5093798;28;20164;-87
2023/10/13 02:04:49;;;;;;;2.83;1.63;;;;;;;13.96;51.33;99429.84;5093373;28;20191;-86
2023/10/13 02:07:16;;;;;;;5.10;1.33;;;;;;;13.94;51.48;99426.44;5076147;28;20637;-86
2023/10/13 02:09:43;;;;;;;3.47;1.50;;;;;;;13.94;51.49;99418.53;5093276;28;20188;-86
2023/10/13 02:12:10;;;;;;;3.90;1.30;;;;;;;13.90;51.75;99422.31;5075574;28;20176;-87
2023/10/13 02:14:37;;;;;;;3.47;1.60;;;;;;;13.94;51.84;99415.06;5093117;28;20656;-86
2023/10/13 02:17:16;;;;;;;4.60;1.70;;;;;;;13.92;51.75;99416.94;5093558;28;20168;-86
2023/10/13 02:19:46;;;;;;;4.07;1.73;;;;;;;13.91;51.68;99417.91;5093516;28;20241;-87
2023/10/13 02:22:24;;;;;;;5.50;1.60;;;;;;;13.90;52.09;99424.09;5075998;28;20258;-86
2023/10/13 02:24:52;;;;;;;2.70;1.27;;;;;;;13.87;52.50;99413.72;5075876;28;20176;-86
2023/10/13 02:27:22;;;;;;;6.33;1.50;;;;;;;13.81;52.52;99408.88;5092826;28;20227;-87
2023/10/13 02:29:49;;;;;;;8.80;1.67;;;;;;;13.70;53.04;99417.41;5096646;28;20175;-86
2023/10/13 02:32:20;;;;;;;3.53;1.27;;;;;;;13.67;52.70;99411.47;5097332;28;20176;-87
2023/10/13 02:34:46;;;;;;;3.07;1.13;;;;;;;13.73;52.51;99417.22;5097508;28;20582;-86
2023/10/13 02:37:13;;;;;;;3.30;1.53;;;;;;;13.83;52.04;99413.09;5097340;28;20183;-87
2023/10/13 02:39:41;;;;;;;5.00;1.80;;;;;;;13.83;51.42;99412.25;5079335;28;20222;-86
2023/10/13 02:42:26;;;;;;;8.67;1.60;;;;;;;13.78;51.62;99398.50;5097497;28;20186;-86
2023/10/13 02:44:55;;;;;;;4.37;1.30;;;;;;;13.64;52.54;99409.88;5097155;28;20176;-86
2023/10/13 02:47:24;;;;;;;2.80;1.20;;;;;;;13.62;52.48;99405.66;5079243;28;20724;-86
2023/10/13 02:49:50;;;;;;;3.47;1.43;;;;;;;13.57;52.64;99416.47;5097179;28;20628;-87
2023/10/13 02:52:15;;;;;;;5.87;1.50;;;;;;;13.53;52.60;99414.94;5097046;28;20182;-86
2023/10/13 02:54:47;;;;;;;6.53;1.43;;;;;;;13.50;53.01;99409.84;5097030;28;20186;-87
2023/10/13 02:57:18;;;;;;;3.40;1.03;;;;;;;13.39;53.82;99417.56;5097343;28;20160;-86
2023/10/13 02:59:47;;;;;;;2.40;1.00;;;;;;;13.38;53.91;99422.00;5096973;28;20493;-87
2023/10/13 03:02:17;;;;;;;3.10;1.37;;;;;;;13.37;54.38;99419.41;5096754;28;20191;-86
2023/10/13 03:04:50;;;;;;;4.17;1.70;;;;;;;13.35;54.92;99419.53;5096852;28;20232;-86
2023/10/13 03:07:23;;;;;;;4.00;1.77;;;;;;;13.36;55.04;99415.94;5096729;28;20202;-86
2023/10/13 03:09:51;;;;;;;2.90;1.60;;;;;;;13.36;55.26;99415.94;5096561;28;20244;-86
2023/10/13 03:12:19;;;;;;;5.20;2.10;;;;;;;13.37;55.58;99415.00;5079060;28;20191;-86
2023/10/13 03:14:47;;;;;;;6.87;1.93;;;;;;;13.37;55.74;99409.75;5060001;28;20613;-87
2023/10/13 03:17:16;;;;;;;3.17;1.77;;;;;;;13.37;56.30;99415.00;5059525;28;20180;-86
2023/10/13 03:19:49;;;;;;;3.13;1.87;;;;;;;13.39;56.39;99415.75;5061341;28;20187;-86
2023/10/13 03:22:17;;;;;;;8.17;2.13;;;;;;;13.48;56.86;99419.63;5097080;28;20163;-86
2023/10/13 03:24:47;;;;;;;5.70;1.80;;;;;;;13.50;56.56;99415.13;5096452;28;20194;-86
2023/10/13 03:27:23;;;;;;;4.73;2.07;;;;;;;13.46;57.26;99413.63;5096232;28;20558;-86
2023/10/13 03:29:56;;;;;;;7.47;1.97;;;;;;;13.41;57.81;99423.59;5096690;28;20175;-86
2023/10/13 03:32:26;;;;;;;5.93;1.57;;;;;;;13.52;57.18;99418.53;5096452;28;20175;-86
2023/10/13 03:34:53;;;;;;;4.00;1.97;;;;;;;13.58;56.93;99412.88;5096247;28;20182;-86
2023/10/13 03:40:33;;;;;;;4.30;1.87;;;;;;;13.60;57.24;99411.00;5095351;28;20280;-86
2023/10/13 03:43:04;;;;;;;4.40;1.90;;;;;;;13.64;57.25;99406.41;5095108;28;20186;-86
2023/10/13 03:45:39;;;;;;;3.30;1.90;;;;;;;13.52;56.89;99408.81;5077937;28;20215;-86
2023/10/13 03:48:11;;;;;;;3.47;1.63;;;;;;;13.51;56.61;99408.94;5095530;28;20268;-86
2023/10/13 03:50:46;;;;;;;7.23;2.00;;;;;;;13.57;56.35;99403.31;5096264;28;20168;-86
2023/10/13 03:53:13;;;;;;;4.70;2.40;;;;;;;13.63;55.64;99405.53;5095981;28;20251;-86
2023/10/13 03:55:47;;;;;;;5.80;2.60;;;;;;;13.65;54.85;99403.69;5077948;28;20724;-86
2023/10/13 03:58:14;;;;;;;6.90;2.33;;;;;;;13.69;54.95;99410.44;5077821;28;20182;-86
2023/10/13 04:00:42;;;;;;;10.10;2.40;;;;;;;13.59;55.13;99405.81;5095705;28;20180;-86
2023/10/13 04:03:16;;;;;;;5.43;2.10;;;;;;;13.57;55.26;99421.75;5095542;28;20179;-87
2023/10/13 04:06:00;;;;;;;5.10;1.80;;;;;;;13.45;54.57;99414.56;5095446;28;20249;-86
2023/10/13 04:27:29;;;;;;;6.00;1.60;;;;;;;13.23;54.13;99412.34;5095380;28;20732;-86
2023/10/13 04:32:33;;;;;;;24.77;2.93;;;;;;;13.19;55.22;99426.63;5095871;28;20178;-86
2023/10/13 04:35:24;;;;;;;6.33;2.20;;;;;;;13.21;55.52;99419.47;5095635;28;20168;-86
2023/10/13 04:40:24;;;;;;;3.47;1.77;;;;;;;13.21;55.54;99429.16;5095350;28;20250;-86
2023/10/13 04:42:50;;;;;;;3.10;1.30;;;;;;;13.20;55.96;99430.13;5095111;28;20650;-86
2023/10/13 04:51:34;;;;;;;2.90;1.27;;;;;;;13.30;55.94;99444.44;5040790;28;20201;-86
2023/10/13 04:54:03;;;;;;;4.70;1.30;;;;;;;13.32;55.68;99442.53;5073298;28;20589;-86
2023/10/13 04:59:18;;;;;;;2.40;1.43;;;;;;;13.37;55.59;99451.03;5074540;28;20196;-86
2023/10/13 05:05:11;;;;;;;5.93;1.40;;;;;;;13.46;55.54;99453.97;5074871;28;20259;-86
2023/10/13 05:51:33;;;;;;;2.27;1.20;;;;;;;19.59;42.96;99452.81;5093711;28;20320;-87
2023/10/13 06:30:06;;;;;;;2.83;1.27;;;;;;;29.95;27.72;99436.47;5093528;28;20179;-87
2023/10/13 06:32:33;;;;;;;4.17;1.30;;;;;;;30.67;26.34;99445.03;5075994;28;20172;-87
2023/10/13 06:35:07;;;;;;;5.47;1.00;;;;;;;31.41;25.76;99437.75;5075163;28;20180;-87
2023/10/13 06:37:34;;;;;;;1.80;0.90;;;;;;;32.00;24.57;99443.25;5075334;28;20226;-87
2023/10/13 06:40:06;;;;;;;3.67;1.27;;;;;;;32.28;24.36;99445.72;5075091;28;20176;-86
2023/10/13 06:42:34;;;;;;;2.55;1.13;;;;;;;32.52;23.76;99442.31;5075052;28;20248;-87
2023/10/13 06:45:08;;;;;;;5.50;1.30;;;;;;;32.75;23.18;99448.94;5075522;28;20191;-87
2023/10/13 06:47:42;;;;;;;2.78;1.30;;;;;;;32.87;23.63;99440.91;5075021;28;20271;-87
2023/10/13 06:50:16;;;;;;;3.22;1.00;;;;;;;33.05;23.00;99432.06;5075764;28;20167;-88
2023/10/13 06:52:43;;;;;;;3.42;1.30;;;;;;;32.96;23.09;99434.22;5076305;28;20176;-88
2023/10/13 06:55:17;;;;;;;3.35;1.30;;;;;;;32.87;23.45;99429.22;5093004;28;20672;-88
2023/10/13 06:57:49;;;;;;;4.35;1.63;;;;;;;32.64;23.93;99429.75;5093535;28;20180;-88
2023/10/13 07:00:29;;;;;;;3.90;1.50;;;;;;;32.13;24.05;99433.22;5074703;28;20187;-89
2023/10/13 07:03:05;;;;;;;2.83;0.82;;;;;;;31.80;25.18;99440.53;5093461;28;20160;-88
2023/10/13 07:05:43;;;;;;;11.18;1.35;;;;;;;31.56;25.41;99444.69;5093271;28;20239;-88
2023/10/13 07:08:14;;;;;;;4.93;1.50;;;;;;;31.38;25.33;99452.56;5092965;28;20224;-88
2023/10/13 07:10:51;;;;;;;5.05;1.38;;;;;;;31.27;25.53;99452.31;5092942;28;20184;-88
2023/10/13 07:13:19;;;;;;;5.15;1.73;;;;;;;31.17;26.07;99454.59;5075002;28;20168;-89
2023/10/13 07:15:45;;;;;;;4.22;1.48;;;;;;;31.06;25.99;99449.75;5093912;28;20177;-89
2023/10/13 07:18:22;;;;;;;4.53;1.83;;;;;;;30.91;26.40;99458.06;5096574;28;20173;-88
2023/10/13 07:20:49;;;;;;;6.25;1.67;;;;;;;30.65;26.32;99447.94;5096672;28;20183;-89
2023/10/13 07:23:19;;;;;;;9.55;3.85;;;;;;;30.51;26.40;99448.06;5096524;28;20622;-88
2023/10/13 07:26:02;;;;;;;4.88;2.35;;;;;;;30.33;26.51;99449.41;5096350;28;20267;-89
2023/10/13 07:28:35;;;;;;;8.82;2.20;;;;;;;30.10;27.05;99437.19;5096030;28;20224;-89
2023/10/13 07:33:31;;;;;;;7.07;2.67;;;;;;;29.64;27.32;99443.03;5096590;28;20185;-90
2023/10/13 07:39:20;;;;;;;10.55;2.42;;;;;;;29.07;27.96;99450.34;5070175;28;20554;-89
2023/10/13 07:41:55;;;;;;;9.18;1.88;;;;;;;28.81;28.20;99448.19;5076095;28;20710;-88
2023/10/13 07:44:24;;;;;;;6.63;1.55;;;;;;;28.60;28.59;99442.69;5076453;28;20165;-89
2023/10/13 07:46:59;;;;;;;3.20;1.80;;;;;;;28.44;28.70;99443.72;5069357;28;20204;-89
2023/10/13 07:49:37;;;;;;;4.30;1.70;;;;;;;28.27;29.24;99442.25;5096575;28;20659;-89
2023/10/13 07:54:55;;;;;;;6.03;2.03;;;;;;;27.55;29.77;99443.78;5096290;28;20186;-89
2023/10/13 07:57:31;;;;;;;5.57;1.55;;;;;;;27.24;30.14;99454.59;5096193;28;20598;-90
2023/10/13 08:00:25;;;;;;;4.45;1.90;;;;;;;27.02;30.35;99451.91;5077687;28;20561;-89
2023/10/13 08:08:39;;;;;;;11.68;4.80;;;;;;;26.56;31.90;99458.97;5096237;28;20517;-89
2023/10/13 08:11:34;;;;;;;31.23;14.82;;;;;;;26.53;32.41;99456.63;5095624;28;20180;-89
2023/10/13 08:14:12;;;;;;;21.85;7.18;;;;;;;26.30;32.70;99463.78;5095333;28;20240;-89
2023/10/13 08:16:45;;;;;;;16.83;7.10;;;;;;;26.49;32.70;99463.38;5095227;28;20183;-88
2023/10/13 08:19:17;;;;;;;9.88;2.67;;;;;;;26.70;32.21;99460.94;5095339;28;20707;-89
2023/10/13 08:22:14;;;;;;;7.25;2.72;;;;;;;26.94;32.65;99457.31;5077555;28;20180;-89
2023/10/13 08:45:20;;;;;;;10.77;2.13;;;;;;;27.67;30.66;99422.66;5094974;28;20179;-89
2023/10/13 08:50:55;;;;;;;4.03;1.92;;;;;;;27.90;31.42;99434.22;5050127;28;20188;-90
2023/10/13 08:53:44;;;;;;;5.82;2.13;;;;;;;28.07;30.94;99429.53;5077547;28;20190;-90
2023/10/13 09:05:09;;;;;;;4.88;1.98;;;;;;;28.36;30.32;99422.25;5094575;28;20176;-89
2023/10/13 09:12:34;;;;;;;;;;;;;;;;;;;;;
2023/10/13 09:17:51;;;;;;;4.03;1.83;;;;;;;28.87;29.98;99411.50;5074079;28;20165;-90
2023/10/13 09:23:12;;;;;;;4.72;1.63;;;;;;;29.11;28.99;99403.06;5081693;28;20613;-89
2023/10/13 09:25:53;;;;;;;4.57;1.83;;;;;;;29.24;29.62;99395.13;5094149;28;20176;-90
2023/10/13 09:28:25;;;;;;;5.57;1.52;;;;;;;29.21;28.87;99399.03;5094538;28;20633;-89
2023/10/13 09:30:53;;;;;;;4.88;2.00;;;;;;;29.37;28.85;99397.09;5094577;28;20165;-89
2023/10/13 09:33:35;;;;;;;3.70;1.58;;;;;;;29.67;29.09;99396.72;5076131;28;20207;-92
2023/10/13 09:36:07;;;;;;;8.82;2.03;;;;;;;29.72;28.20;99390.72;5094717;28;20184;-90
2023/10/13 09:39:10;;;;;;;6.10;2.05;;;;;;;29.73;28.59;99395.94;5093425;28;20180;-90
2023/10/13 09:41:26;;;;;;;5.63;1.98;;;;;;;29.89;29.32;99392.13;5092606;28;20192;-90
2023/10/13 09:43:57;;;;;;;2.55;1.35;;;;;;;30.10;28.11;99396.63;5094700;28;20210;-92
2023/10/13 09:46:28;;;;;;;7.28;1.88;;;;;;;30.01;28.09;99395.94;5094004;28;20184;-91
2023/10/13 09:49:14;;;;;;;4.85;1.55;;;;;;;30.35;28.14;99385.16;5076050;28;20184;-90
2023/10/13 09:51:44;;;;;;;5.00;1.40;;;;;;;30.57;27.57;99383.16;5094434;28;20164;-90
2023/10/13 09:54:31;;;;;;;5.97;1.50;;;;;;;30.67;27.13;99375.50;5094364;28;20234;-91
2023/10/13 09:57:09;;;;;;;8.68;1.88;;;;;;;30.80;27.27;99385.53;5093706;28;20238;-91
2023/10/13 09:59:49;;;;;;;7.30;1.95;;;;;;;30.89;27.41;99381.59;5093795;28;20230;-90
2023/10/13 10:02:20;;;;;;;7.18;2.28;;;;;;;30.93;27.89;99375.59;5081628;28;20702;-89
2023/10/13 10:05:40;;;;;;;5.00;1.50;;;;;;;30.91;27.66;99380.38;5093598;28;20180;-89
2023/10/13 10:07:43;;;;;;;3.70;1.73;;;;;;;31.03;27.69;99369.78;5082732;28;20269;-90
2023/10/13 10:10:11;;;;;;;7.50;1.85;;;;;;;31.05;28.42;99361.47;5093602;28;20172;-90
2023/10/13 10:12:52;;;;;;;4.22;1.90;;;;;;;31.35;27.02;99354.59;5093646;28;20179;-91
2023/10/13 10:15:43;;;;;;;4.30;1.45;;;;;;;31.87;26.50;99356.44;5093527;28;20322;-92
2023/10/13 10:18:25;;;;;;;3.30;1.60;;;;;;;32.01;26.32;99352.69;5093745;28;20618;-91
2023/10/13 10:20:55;;;;;;;4.82;1.38;;;;;;;32.14;26.70;99353.50;5093735;28;20213;-92
2023/10/13 10:23:48;;;;;;;5.90;1.73;;;;;;;32.36;25.07;99351.34;5093762;28;20172;-91
2023/10/13 10:26:19;;;;;;;3.15;1.50;;;;;;;32.45;24.14;99351.91;5093468;28;20180;-91
2023/10/13 10:28:46;;;;;;;5.80;1.83;;;;;;;32.52;24.88;99344.59;5093028;28;20196;-91
2023/10/13 10:31:16;;;;;;;4.80;1.80;;;;;;;32.47;24.35;99347.13;5093455;28;20629;-92
2023/10/13 10:33:43;;;;;;;2.92;1.38;;;;;;;32.36;24.46;99340.50;5093416;28;20177;-91
2023/10/13 10:36:16;;;;;;;3.90;1.65;;;;;;;32.22;24.24;99341.56;5093153;28;20536;-90
2023/10/13 10:39:00;;;;;;;2.70;1.40;;;;;;;32.31;24.57;99336.75;5093154;28;20237;-91
2023/10/13 10:41:51;;;;;;;4.60;1.63;;;;;;;32.35;23.95;99337.97;5075484;28;20191;-91
2023/10/13 10:44:42;;;;;;;3.72;1.67;;;;;;;32.25;24.54;99334.88;5093530;28;20191;-89
2023/10/13 10:48:16;;;;;;;5.03;1.90;;;;;;;32.49;24.32;99328.72;5092114;28;20629;-92
2023/10/13 10:50:36;;;;;;;3.65;1.75;;;;;;;32.74;23.30;99321.50;5085754;28;20239;-92
2023/10/13 10:52:57;;;;;;;5.75;1.55;;;;;;;32.73;23.63;99311.72;5094391;28;20275;-90
2023/10/13 10:55:27;;;;;;;6.88;2.10;;;;;;;32.89;24.15;99315.78;5079074;28;20541;-90
2023/10/13 10:58:01;;;;;;;6.05;1.98;;;;;;;32.89;23.50;99304.94;5079422;28;20238;-91
2023/10/13 11:00:41;;;;;;;5.25;1.65;;;;;;;32.95;23.42;99304.88;5097249;28;20180;-90
2023/10/13 11:03:10;;;;;;;4.85;1.55;;;;;;;33.05;23.66;99302.53;5079186;28;20226;-90
2023/10/13 11:05:45;;;;;;;7.40;2.70;;;;;;;33.31;23.58;99302.31;5097956;28;20529;-91
2023/10/13 11:08:31;;;;;;;4.38;1.70;;;;;;;33.50;22.96;99300.47;5078903;28;20203;-91
2023/10/13 11:11:00;;;;;;;5.22;1.70;;;;;;;33.33;22.77;99288.50;5097314;28;20179;-90
2023/10/13 11:13:30;;;;;;;5.00;1.85;;;;;;;33.46;22.89;99293.81;5096871;28;20172;-90
2023/10/13 11:15:57;;;;;;;3.78;1.65;;;;;;;33.58;22.44;99297.50;5079048;28;20192;-92
2023/10/13 11:18:40;;;;;;;2.85;1.38;;;;;;;33.69;21.74;99298.63;5078848;28;20177;-92
2023/10/13 11:21:07;;;;;;;3.55;1.50;;;;;;;33.65;22.23;99287.38;5096874;28;20183;-92
2023/10/13 11:23:38;;;;;;;3.22;1.58;;;;;;;33.78;22.54;99278.25;5078985;28;20622;-91
2023/10/13 11:26:04;;;;;;;3.03;1.50;;;;;;;33.86;22.30;99281.50;5078832;28;20176;-92
2023/10/13 11:28:31;;;;;;;2.83;1.40;;;;;;;33.96;22.48;99276.34;5078716;28;20219;-91
2023/10/13 11:30:58;;;;;;;4.70;1.58;;;;;;;34.05;21.88;99282.31;5078980;28;20759;-91
2023/10/13 11:33:28;;;;;;;4.53;1.77;;;;;;;33.99;21.83;99275.91;5096844;28;20207;-90
2023/10/13 11:35:55;;;;;;;3.33;1.33;;;;;;;33.77;22.38;99273.88;5078692;28;20187;-91
2023/10/13 11:41:16;;;;;;;4.75;2.00;;;;;;;33.91;22.74;99275.38;5097401;28;20164;-92
2023/10/13 11:43:52;;;;;;;3.38;1.83;;;;;;;34.18;21.80;99268.56;5096230;28;20180;-92
2023/10/13 11:49:17;;;;;;;4.32;2.05;;;;;;;34.41;21.27;99265.13;5096122;28;20522;-90
2023/10/13 11:51:48;;;;;;;8.20;1.60;;;;;;;34.43;21.59;99272.03;5078598;28;20188;-91
2023/10/13 11:54:15;;;;;;;5.45;2.00;;;;;;;34.11;22.53;99267.00;5095194;28;20165;-90
2023/10/13 11:56:42;;;;;;;3.47;1.52;;;;;;;34.14;22.13;99264.66;5077851;28;20196;-90
2023/10/13 11:59:18;;;;;;;8.05;2.33;;;;;;;34.09;21.76;99261.81;5095936;28;20263;-91
2023/10/13 12:07:23;;;;;;;4.13;1.50;;;;;;;33.77;22.09;99263.00;5095760;28;20180;-90
2023/10/13 12:10:03;;;;;;;3.13;1.70;;;;;;;33.62;22.20;99262.53;5075809;28;20168;-90
2023/10/13 12:12:40;;;;;;;3.33;2.13;;;;;;;33.72;22.22;99271.00;5075902;28;20153;-90
2023/10/13 12:15:09;;;;;;;6.32;2.05;;;;;;;33.79;22.00;99264.44;5082632;28;20172;-89
2023/10/13 12:17:39;;;;;;;7.18;1.60;;;;;;;33.85;22.01;99259.97;5095763;28;20249;-90
2023/10/13 12:20:10;;;;;;;2.60;1.33;;;;;;;34.04;22.23;99263.50;5095339;28;20172;-89
2023/10/13 12:22:42;;;;;;;2.67;1.17;;;;;;;33.99;20.65;99256.84;5095803;28;20156;-90
2023/10/13 12:27:57;;;;;;;3.05;1.20;;;;;;;33.98;20.97;99257.09;5095849;28;20345;-91
2023/10/13 12:30:48;;;;;;;2.92;1.10;;;;;;;33.78;20.36;99268.19;5075209;28;20169;-92
2023/10/13 12:33:27;;;;;;;3.05;1.40;;;;;;;33.77;21.04;99263.81;5083886;28;20622;-91
2023/10/13 12:49:52;;;;;;;5.22;1.55;;;;;;;33.77;22.30;99263.00;5095567;28;20175;-90
2023/10/13 12:52:34;;;;;;;2.90;1.42;;;;;;;33.72;22.08;99265.56;5095004;28;20207;-90
2023/10/13 12:57:32;;;;;;;5.97;1.50;;;;;;;33.68;22.26;99261.63;5095630;28;20193;-91
2023/10/13 12:59:59;;;;;;;4.40;1.52;;;;;;;33.73;22.21;99259.03;5094938;28;20180;-90
2023/10/13 13:02:27;;;;;;;6.97;1.77;;;;;;;33.77;21.91;99263.00;5095365;28;20172;-90
2023/10/13 13:05:12;;;;;;;5.20;2.22;;;;;;;33.88;22.24;99260.31;5095076;28;20176;-90
2023/10/13 13:07:52;;;;;;;8.18;2.05;;;;;;;34.00;21.81;99257.69;5094654;28;20178;-90
2023/10/13 13:10:19;;;;;;;4.85;1.48;;;;;;;34.10;21.83;99252.56;5076697;28;20628;-89
2023/10/13 13:12:44;;;;;;;4.43;1.48;;;;;;;34.18;21.44;99252.25;5093923;28;20681;-90
2023/10/13 13:15:12;;;;;;;5.30;1.85;;;;;;;34.10;21.15;99262.59;5093910;28;20239;-89
2023/10/13 13:17:38;;;;;;;6.75;2.15;;;;;;;33.88;21.73;99256.81;5094407;28;20280;-90
2023/10/13 13:20:25;;;;;;;5.80;1.50;;;;;;;33.74;22.29;99253.41;5076603;28;20634;-90
2023/10/13 13:22:54;;;;;;;4.03;1.77;;;;;;;33.68;22.30;99248.84;5094700;28;20550;-91
2023/10/13 13:25:30;;;;;;;9.23;2.00;;;;;;;33.77;22.74;99246.69;5093910;28;20176;-90
2023/10/13 13:27:57;;;;;;;6.55;2.15;;;;;;;33.77;21.80;99242.06;5094580;28;20158;-91
2023/10/13 13:30:30;;;;;;;6.10;1.80;;;;;;;33.72;23.00;99243.81;5076344;28;20632;-90
2023/10/13 13:33:03;;;;;;;3.42;1.38;;;;;;;33.82;22.56;99238.66;5093953;28;20184;-90
2023/10/13 13:35:34;;;;;;;7.05;1.95;;;;;;;33.90;23.02;99236.47;5094386;28;20153;-90
2023/10/13 13:38:10;;;;;;;3.30;1.50;;;;;;;33.97;22.45;99239.09;5094557;28;20214;-91
2023/10/13 13:40:39;;;;;;;4.80;1.52;;;;;;;33.78;22.02;99243.72;5094080;28;20508;-91
2023/10/13 13:43:17;;;;;;;3.08;1.08;;;;;;;33.72;22.27;99246.53;5093813;28;20226;-90
2023/10/13 13:45:45;;;;;;;4.47;1.88;;;;;;;33.80;22.33;99251.66;5094505;28;20160;-90
2023/10/13 13:48:15;;;;;;;6.28;1.65;;;;;;;33.84;21.87;99237.38;5075808;28;20237;-91
2023/10/13 13:50:42;;;;;;;7.47;1.50;;;;;;;33.97;22.36;99239.94;5094037;28;20165;-90
2023/10/13 13:53:09;;;;;;;3.00;1.50;;;;;;;33.97;21.79;99239.94;5059635;28;20181;-89
2023/10/13 13:55:39;;;;;;;4.63;1.40;;;;;;;33.73;22.08;99235.41;5073456;28;20169;-90
2023/10/13 13:58:07;;;;;;;5.00;1.67;;;;;;;33.68;22.33;99227.09;5057564;28;20189;-90
2023/10/13 14:00:38;;;;;;;3.95;1.65;;;;;;;33.34;21.02;99242.06;5093627;28;20165;-90
2023/10/13 14:03:12;;;;;;;2.95;1.20;;;;;;;33.34;22.05;99241.25;5093895;28;20550;-89
2023/10/13 14:05:42;;;;;;;4.57;1.70;;;;;;;33.42;22.78;99239.06;5093984;28;20167;-89
2023/10/13 14:08:11;;;;;;;4.65;1.48;;;;;;;33.35;22.19;99232.88;5075841;28;20538;-90
2023/10/13 14:13:47;;;;;;;3.30;1.40;;;;;;;33.31;22.74;99236.25;5094052;28;20198;-90
2023/10/13 14:16:16;;;;;;;4.97;1.52;;;;;;;33.30;22.14;99232.72;5093146;28;20611;-90
2023/10/13 14:18:47;;;;;;;4.05;1.75;;;;;;;33.27;22.61;99235.88;5075540;28;20191;-89
2023/10/13 14:21:17;;;;;;;18.90;6.97;;;;;;;33.43;22.44;99237.19;5093289;28;20622;-91
2023/10/13 14:23:47;;;;;;;24.95;8.50;;;;;;;33.47;22.65;99234.81;5093637;28;20587;-90
2023/10/13 14:26:25;;;;;;;15.13;4.95;;;;;;;33.46;22.55;99239.47;5093260;28;20267;-90
2023/10/13 14:29:00;;;;;;;15.85;6.20;;;;;;;33.48;22.72;99237.34;5075397;28;20223;-90
2023/10/13 14:31:28;;;;;;;6.60;2.42;;;;;;;33.37;22.85;99230.75;5093606;28;20156;-90
2023/10/13 14:33:56;;;;;;;2.95;1.55;;;;;;;33.23;23.13;99229.22;5075558;28;20234;-90
2023/10/13 14:36:26;;;;;;;3.28;1.10;;;;;;;33.17;22.92;99230.13;5075173;28;20184;-89
2023/10/13 14:38:51;;;;;;;4.55;1.85;;;;;;;33.06;23.38;99225.41;5092203;28;20526;-90
2023/10/13 14:41:19;;;;;;;3.25;1.35;;;;;;;32.93;23.76;99219.22;5093039;28;20191;-89
2023/10/13 14:43:47;;;;;;;5.68;1.60;;;;;;;32.80;25.10;99220.19;5093449;28;20249;-89
2023/10/13 14:46:23;;;;;;;8.30;1.70;;;;;;;32.67;24.40;99225.72;5093005;28;20184;-89
2023/10/13 14:48:52;;;;;;;6.82;1.75;;;;;;;32.52;25.16;99225.16;5093680;28;20686;-89
2023/10/13 14:51:18;;;;;;;2.97;1.48;;;;;;;32.36;25.81;99226.53;5087954;28;20626;-90
2023/10/13 14:53:48;;;;;;;4.70;1.38;;;;;;;32.19;25.96;99220.75;5072859;28;20250;-90
2023/10/13 14:56:17;;;;;;;3.22;1.65;;;;;;;32.02;26.42;99230.44;5073060;28;20181;-90
2023/10/13 14:58:44;;;;;;;3.33;1.60;;;;;;;31.89;25.75;99224.22;5091961;28;20208;-89
2023/10/13 15:01:18;;;;;;;4.80;1.70;;;;;;;31.77;26.57;99232.19;5093354;28;20207;-90
2023/10/13 15:03:50;;;;;;;4.78;1.52;;;;;;;31.61;26.94;99230.78;5092224;28;20221;-89
2023/10/13 15:06:28;;;;;;;14.10;1.60;;;;;;;31.48;26.82;99232.69;5072977;28;20255;-88
2023/10/13 15:08:57;;;;;;;3.17;1.30;;;;;;;31.35;26.20;99233.53;5073099;28;20181;-89
2023/10/13 15:11:27;;;;;;;5.05;1.52;;;;;;;31.25;26.99;99226.88;5077624;28;20254;-89
2023/10/13 15:13:55;;;;;;;3.30;1.27;;;;;;;31.11;27.53;99230.63;5092916;28;20172;-90
2023/10/13 15:16:28;;;;;;;6.35;1.90;;;;;;;30.99;27.88;99233.97;5092551;28;20172;-89
2023/10/13 15:18:54;;;;;;;9.32;1.63;;;;;;;30.87;27.44;99229.38;5092973;28;20161;-91
2023/10/13 15:21:30;;;;;;;5.22;1.73;;;;;;;30.72;28.12;99237.69;5092850;28;20545;-89
2023/10/13 15:23:59;;;;;;;6.25;2.10;;;;;;;30.57;28.35;99238.91;5092947;28;20168;-89
2023/10/13 15:26:26;;;;;;;5.50;1.90;;;;;;;30.43;28.11;99238.03;5074975;28;20188;-88
2023/10/13 15:28:53;;;;;;;7.60;2.10;;;;;;;30.30;28.58;99233.41;5092525;28;20677;-88
2023/10/13 15:31:26;;;;;;;8.27;2.28;;;;;;;30.15;28.47;99248.97;5092620;28;20203;-89
2023/10/13 15:33:55;;;;;;;9.30;1.77;;;;;;;29.98;28.40;99247.66;5092614;28;20168;-90